Time;durP1;ratioP1;P1;durP2;ratioP2;P2;SDS_P1;SDS_P2;PMS_P1;PMS_P2;Temp;Humidity;BMP_temperature;BMP_pressure;BME280_temperature;BME280_humidity;BME280_pressure;Samples;Min_cycle;Max_cycle;Signal;HPM_P1;HPM_P2
2021/11/12 09:43:04;;;;;;;69.88;38.72;;;179.20;2252.80;;;;;;5151284;27;20475;-78
2021/11/12 09:45:30;;;;;;;63.97;34.50;;;179.30;2252.80;;;;;;5123061;28;20089;-79
2021/11/12 09:47:57;;;;;;;100.00;51.40;;;179.60;2252.80;;;;;;5095433;28;20061;-78
2021/11/12 09:50:30;;;;;;;69.80;38.08;;;180.00;2252.80;;;;;;5100745;28;20073;-79
2021/11/12 09:52:58;;;;;;;85.30;40.30;;;204.80;2252.80;;;;;;5100281;28;20020;-78
2021/11/12 09:55:24;;;;;;;85.78;45.33;;;204.90;2252.80;;;;;;5090965;28;20063;-78
2021/11/12 09:57:51;;;;;;;80.80;42.00;;;204.90;2252.80;;;;;;5099183;28;20048;-79
2021/11/12 10:00:24;;;;;;;89.47;42.83;;;204.90;2252.80;;;;;;5092563;28;20035;-78
2021/11/12 10:02:52;;;;;;;83.60;44.60;;;205.30;2252.80;;;;;;5088148;28;20501;-78
2021/11/12 10:05:39;;;;;;;89.68;47.40;;;230.60;2252.80;;;;;;5088291;28;20048;-78
2021/11/12 10:08:19;;;;;;;99.72;46.17;;;231.20;2252.80;;;;;;5097851;28;20474;-78
2021/11/12 10:10:47;;;;;;;88.50;44.03;;;256.40;2252.80;;;;;;5090616;28;20036;-78
2021/11/12 10:13:25;;;;;;;114.22;48.63;;;256.50;2252.80;;;;;;5096559;28;20035;-78
2021/11/12 10:15:53;;;;;;;213.13;66.45;;;256.00;2252.80;;;;;;5101643;28;20021;-78
2021/11/12 10:18:19;;;;;;;218.27;69.10;;;231.00;2252.80;;;;;;5102169;28;20473;-78
2021/11/12 10:20:58;;;;;;;202.82;65.60;;;230.70;2252.80;;;;;;5087806;28;20095;-78
2021/11/12 10:23:30;;;;;;;248.43;77.75;;;230.40;2252.80;;;;;;5087738;28;20024;-78
2021/11/12 10:26:00;;;;;;;90.28;44.75;;;230.50;2252.80;;;;;;5089285;28;20504;-78
2021/11/12 10:28:38;;;;;;;81.75;43.50;;;205.70;2252.80;;;;;;5086778;28;20028;-78
2021/11/12 10:31:24;;;;;;;91.05;46.45;;;205.70;2252.80;;;;;;5086824;28;20040;-78
2021/11/12 10:33:51;;;;;;;84.35;43.97;;;205.70;2252.80;;;;;;5093492;28;20105;-78
2021/11/12 10:36:18;;;;;;;89.82;44.60;;;230.60;2252.80;;;;;;5092921;28;20437;-78
2021/11/12 10:38:47;;;;;;;77.38;44.05;;;230.80;2252.80;;;;;;5099530;28;20455;-80
2021/11/12 10:41:23;;;;;;;74.50;41.25;;;230.90;2252.80;;;;;;5103212;28;20048;-78
2021/11/12 10:43:51;;;;;;;75.88;42.35;;;230.70;2252.80;;;;;;5106970;28;20020;-78
2021/11/12 10:46:37;;;;;;;174.70;54.35;;;230.80;2252.80;;;;;;5103909;28;20054;-78
2021/11/12 10:49:23;;;;;;;312.67;86.00;;;231.00;2252.80;;;;;;5098067;28;20023;-78
2021/11/12 10:52:10;;;;;;;64.50;39.58;;;256.30;2252.80;;;;;;5094995;28;20296;-78
2021/11/12 10:54:45;;;;;;;;;;;256.50;2252.80;;;;;;5075082;28;20063;-79
2021/11/12 10:57:11;;;;;;;135.15;50.88;;;256.10;2252.80;;;;;;5104338;28;19904;-78
2021/11/12 10:59:53;;;;;;;299.15;85.10;;;256.90;2252.80;;;;;;5081504;28;20124;-77
2021/11/12 11:02:33;;;;;;;338.85;97.60;;;281.60;2278.40;;;;;;5083866;28;20028;-77
2021/11/12 11:05:08;;;;;;;126.70;50.88;;;256.90;2252.80;;;;;;5084500;28;20119;-78
2021/11/12 11:07:34;;;;;;;130.02;51.00;;;282.10;2278.40;;;;;;5099602;28;20020;-78
2021/11/12 11:10:02;;;;;;;158.95;62.35;;;307.20;2304.00;;;;;;5082027;28;20067;-77
2021/11/12 11:12:39;;;;;;;243.38;77.88;;;282.40;2278.40;;;;;;5085372;28;20045;-78
2021/11/12 11:15:24;;;;;;;242.38;76.82;;;282.10;2278.40;;;;;;5081467;28;20497;-77
2021/11/12 11:18:09;;;;;;;183.93;65.28;;;282.10;2278.40;;;;;;5081655;28;20043;-78
2021/11/12 11:20:35;;;;;;;83.85;44.75;;;282.30;2278.40;;;;;;5069676;28;20033;-78
2021/11/12 11:23:01;;;;;;;79.55;41.30;;;282.30;2278.40;;;;;;5073790;28;20032;-78
2021/11/12 11:25:29;;;;;;;85.70;43.17;;;282.50;2278.40;;;;;;5072323;28;20126;-78
2021/11/12 11:27:59;;;;;;;71.82;41.22;;;282.40;2278.40;;;;;;5071253;28;20036;-78
2021/11/12 11:30:26;;;;;;;72.80;39.88;;;282.20;2278.40;;;;;;5068767;28;20028;-78
2021/11/12 11:32:52;;;;;;;115.22;50.72;;;282.20;2278.40;;;;;;5071029;28;20021;-77
2021/11/12 11:35:20;;;;;;;71.82;40.88;;;282.50;2278.40;;;;;;5088010;28;20021;-77
2021/11/12 11:37:50;;;;;;;74.07;42.00;;;307.50;2304.00;;;;;;5072058;28;20418;-78
2021/11/12 11:40:20;;;;;;;68.97;40.20;;;333.00;2329.60;;;;;;5071561;28;20021;-78
2021/11/12 11:42:46;;;;;;;66.03;36.88;;;333.30;2329.60;;;;;;5071028;28;20487;-78
2021/11/12 11:45:14;;;;;;;61.00;36.58;;;333.00;2329.60;;;;;;5071293;28;20031;-78
2021/11/12 11:47:44;;;;;;;66.65;40.70;;;333.10;2329.60;;;;;;5070833;28;20059;-78
2021/11/12 11:50:28;;;;;;;76.78;41.78;;;333.10;2329.60;;;;;;5105128;28;20120;-80
2021/11/12 11:53:14;;;;;;;71.90;41.30;;;333.30;2329.60;;;;;;5086876;28;20029;-78
2021/11/12 11:55:40;;;;;;;73.53;43.10;;;333.20;2329.60;;;;;;5069030;28;20060;-77
2021/11/12 11:58:49;;;;;;;69.13;41.38;;;332.90;2329.60;;;;;;5074729;28;20063;-78
2021/11/12 12:01:24;;;;;;;69.35;38.78;;;333.50;2329.60;;;;;;5009780;28;20073;-78
2021/11/12 12:04:03;;;;;;;61.38;35.78;;;358.80;2329.60;;;;;;5030043;28;20033;-78
2021/11/12 12:06:28;;;;;;;66.50;37.50;;;358.60;2329.60;;;;;;5030377;28;20017;-79
2021/11/12 12:09:06;;;;;;;64.78;37.55;;;358.70;2329.60;;;;;;5021648;28;20044;-78
2021/11/12 12:11:35;;;;;;;63.92;37.33;;;358.90;2329.60;;;;;;5025008;28;20041;-79
2021/11/12 12:14:29;;;;;;;62.55;37.35;;;359.10;2329.60;;;;;;5030769;28;20049;-78
2021/11/12 12:17:10;;;;;;;69.65;42.95;;;359.10;2329.60;;;;;;5030452;28;20126;-78
2021/11/12 12:20:06;;;;;;;64.07;39.20;;;358.90;2329.60;;;;;;5030107;28;20055;-79
2021/11/12 13:23:44;;;;;;;63.90;36.05;;;333.40;2329.60;;;;;;5047216;28;20120;-78
2021/11/12 13:26:00;;;;;;;68.83;39.83;;;333.50;2329.60;;;;;;5045700;28;20061;-75
2021/11/12 13:28:37;;;;;;;60.13;37.22;;;333.50;2329.60;;;;;;5047999;28;20254;-74
2021/11/12 13:31:08;;;;;;;71.10;39.10;;;333.50;2329.60;;;;;;5047101;28;20443;-74
2021/11/12 13:33:43;;;;;;;81.60;41.63;;;333.40;2329.60;;;;;;5028057;28;20032;-74
2021/11/12 13:36:28;;;;;;;71.63;39.83;;;333.40;2329.60;;;;;;5031562;28;20226;-74
2021/11/12 13:39:03;;;;;;;74.82;41.42;;;333.30;2329.60;;;;;;5031776;28;20387;-74
2021/11/12 13:41:37;;;;;;;73.55;43.17;;;333.20;2329.60;;;;;;5047869;28;20060;-74
2021/11/12 13:44:07;;;;;;;80.25;44.15;;;333.00;2329.60;;;;;;5048387;28;20029;-74
2021/11/12 13:46:45;;;;;;;76.07;44.70;;;333.00;2329.60;;;;;;5031127;28;20029;-74
2021/11/12 13:49:34;;;;;;;70.20;42.30;;;333.10;2329.60;;;;;;5047222;28;20112;-74
2021/11/12 13:52:14;;;;;;;76.82;42.63;;;333.10;2329.60;;;;;;5045730;28;20032;-74
2021/11/12 13:54:45;;;;;;;70.15;44.72;;;333.00;2329.60;;;;;;5065487;28;20044;-74
2021/11/12 13:57:14;;;;;;;65.03;40.90;;;332.80;2329.60;;;;;;5068393;28;20475;-74
2021/11/12 14:00:10;;;;;;;72.28;41.75;;;307.90;2304.00;;;;;;5084260;28;20051;-74
2021/11/12 14:03:06;;;;;;;84.32;46.03;;;307.80;2304.00;;;;;;5029234;28;20127;-74
2021/11/12 14:05:37;;;;;;;81.38;45.50;;;307.50;2304.00;;;;;;5027984;28;20397;-75
2021/11/12 14:08:12;;;;;;;86.13;42.40;;;307.40;2304.00;;;;;;5027143;28;20486;-74
2021/11/12 14:10:40;;;;;;;82.07;45.58;;;307.30;2304.00;;;;;;5027574;28;20112;-74
2021/11/12 14:13:08;;;;;;;76.43;47.00;;;307.20;2304.00;;;;;;5027775;28;20134;-73
2021/11/12 14:15:43;;;;;;;63.88;42.67;;;307.20;2304.00;;;;;;5028159;28;20045;-74
2021/11/12 14:21:46;;;;;;;93.93;55.25;;;282.20;2278.40;;;;;;5028438;28;20458;-74
2021/11/12 14:29:42;;;;;;;100.70;50.35;;;281.70;2278.40;;;;;;5031148;28;20018;-74
2021/11/12 14:40:51;;;;;;;107.63;54.72;;;256.30;2252.80;;;;;;5061060;28;20021;-74
2021/11/12 14:45:39;;;;;;;100.60;57.50;;;231.30;2252.80;;;;;;5064198;28;20021;-74
2021/11/12 14:51:12;;;;;;;89.78;51.40;;;231.00;2252.80;;;;;;5069971;28;20023;-74
2021/11/12 14:53:40;;;;;;;91.20;53.63;;;230.80;2252.80;;;;;;5075760;28;20112;-74
2021/11/12 14:56:12;;;;;;;89.60;51.00;;;230.70;2252.80;;;;;;5072624;28;20490;-74
2021/11/12 14:58:45;;;;;;;102.60;52.90;;;230.50;2252.80;;;;;;5071594;28;20063;-74
2021/11/12 15:01:15;;;;;;;96.35;50.78;;;205.70;2252.80;;;;;;5072930;28;20119;-74
2021/11/12 15:03:43;;;;;;;119.70;55.60;;;205.50;2252.80;;;;;;5074237;28;20029;-74
2021/11/12 15:06:14;;;;;;;101.03;53.75;;;205.40;2252.80;;;;;;5072599;28;20078;-75
2021/11/12 15:08:54;;;;;;;102.90;51.90;;;205.20;2252.80;;;;;;5071735;28;20028;-74
2021/11/12 15:11:23;;;;;;;105.63;54.88;;;205.20;2252.80;;;;;;5071793;28;20037;-74
2021/11/12 15:13:50;;;;;;;104.15;55.88;;;205.10;2252.80;;;;;;5075177;28;20799;-74
2021/11/12 15:16:22;;;;;;;110.82;55.92;;;205.10;2252.80;;;;;;5076590;28;20036;-75
2021/11/12 15:18:51;;;;;;;124.60;56.63;;;205.00;2252.80;;;;;;5071646;28;20116;-74
2021/11/12 15:21:22;;;;;;;116.50;55.88;;;205.20;2252.80;;;;;;5072960;28;20478;-75
2021/11/12 15:26:47;;;;;;;115.50;60.40;;;204.80;2252.80;;;;;;5069364;28;20561;-75
2021/11/12 15:34:31;;;;;;;110.32;57.53;;;180.00;2252.80;;;;;;5065067;28;20078;-75
2021/11/12 15:44:37;;;;;;;129.95;74.32;;;179.80;2252.80;;;;;;5066180;28;20030;-75
2021/11/12 15:47:08;;;;;;;133.05;73.82;;;179.80;2252.80;;;;;;5081606;28;20518;-75
2021/11/12 15:49:37;;;;;;;125.15;69.32;;;179.80;2252.80;;;;;;5065124;28;20028;-75
2021/11/12 15:52:08;;;;;;;129.25;70.78;;;180.00;2252.80;;;;;;5063915;28;20027;-75
2021/11/12 15:54:54;;;;;;;128.77;70.20;;;179.70;2252.80;;;;;;5080766;28;20078;-76
2021/11/12 16:05:27;;;;;;;122.63;68.43;;;179.60;2252.80;;;;;;5069101;28;20078;-76
2021/11/12 16:13:12;;;;;;;129.55;71.15;;;179.50;2252.80;;;;;;5071122;28;20159;-76
2021/11/12 16:25:52;;;;;;;129.00;66.28;;;179.40;2252.80;;;;;;5070691;28;20020;-75
2021/11/12 16:28:21;;;;;;;124.35;66.13;;;179.30;2252.80;;;;;;5069873;28;20031;-74
2021/11/12 16:30:54;;;;;;;122.07;64.05;;;179.40;2252.80;;;;;;5071479;28;20016;-74
2021/11/12 16:33:20;;;;;;;124.60;67.55;;;179.40;2252.80;;;;;;5069688;28;20013;-74
2021/11/12 16:35:46;;;;;;;136.88;68.63;;;179.30;2252.80;;;;;;5070964;28;20064;-74
2021/11/12 16:40:50;;;;;;;127.45;67.80;;;179.30;2252.80;;;;;;5068313;28;20026;-74
2021/11/12 16:48:51;;;;;;;156.93;86.07;;;154.50;2252.80;;;;;;5054117;28;20024;-74
2021/11/12 16:54:12;;;;;;;159.48;87.80;;;154.50;2252.80;;;;;;5049729;28;20090;-75
2021/11/12 17:02:02;;;;;;;157.38;88.70;;;154.40;2252.80;;;;;;5052990;28;20039;-78
2021/11/12 17:04:55;;;;;;;158.70;84.90;;;154.40;2252.80;;;;;;5047536;28;20053;-78
2021/11/12 17:10:11;;;;;;;155.68;86.07;;;154.20;2252.80;;;;;;5055311;28;20602;-77
2021/11/12 17:13:00;;;;;;;162.07;86.25;;;154.20;2252.80;;;;;;5053384;28;20047;-77
2021/11/12 17:16:10;;;;;;;168.55;91.20;;;154.10;2252.80;;;;;;5048086;28;20388;-77
2021/11/12 17:48:39;;;;;;;178.60;98.35;;;153.70;2252.80;;;;;;5050416;28;20537;-76
2021/11/12 18:02:09;;;;;;;173.63;88.82;;;153.60;2252.80;;;;;;5047253;28;20483;-77
2021/11/12 21:47:10;;;;;;;186.02;88.97;;;128.10;2252.80;;;;;;4964333;28;20049;-77
2021/11/12 21:49:36;;;;;;;176.43;87.05;;;128.10;2252.80;;;;;;4972983;28;20030;-77
2021/11/12 21:52:04;;;;;;;156.20;79.85;;;128.10;2252.80;;;;;;4973620;28;20505;-77
2021/11/12 21:54:30;;;;;;;159.23;82.25;;;128.10;2252.80;;;;;;4973266;28;20551;-77
2021/11/12 21:56:59;;;;;;;156.98;84.68;;;128.10;2252.80;;;;;;4973622;28;20409;-77
2021/11/12 21:59:25;;;;;;;176.55;88.03;;;128.10;2252.80;;;;;;4973278;28;20062;-78
2021/11/12 22:01:51;;;;;;;183.23;94.88;;;128.20;2252.80;;;;;;4989244;28;20151;-78
2021/11/12 22:04:18;;;;;;;198.82;99.63;;;128.10;2252.80;;;;;;5008361;28;20116;-78
2021/11/12 22:06:43;;;;;;;183.75;98.78;;;128.10;2252.80;;;;;;5012125;28;20393;-78
2021/11/12 22:09:09;;;;;;;202.35;106.00;;;128.20;2252.80;;;;;;5029151;28;20039;-78
2021/11/12 22:11:35;;;;;;;194.32;106.57;;;128.20;2252.80;;;;;;5003007;28;20134;-78
2021/11/12 22:14:04;;;;;;;195.15;97.50;;;128.20;2252.80;;;;;;4992830;28;20440;-77
2021/11/12 22:16:30;;;;;;;195.23;106.43;;;128.20;2252.80;;;;;;5008952;28;20038;-77
2021/11/12 22:18:56;;;;;;;212.25;116.13;;;128.30;2252.80;;;;;;5009243;28;20030;-77
2021/11/12 22:21:22;;;;;;;198.50;108.38;;;128.30;2252.80;;;;;;5008787;28;20033;-78
2021/11/12 22:23:48;;;;;;;225.50;118.25;;;128.20;2252.80;;;;;;5045535;28;20028;-77
2021/11/12 22:26:15;;;;;;;192.23;105.80;;;128.20;2252.80;;;;;;5069268;28;20024;-77
2021/11/12 22:28:41;;;;;;;165.52;96.35;;;128.20;2252.80;;;;;;5069433;28;20021;-77
2021/11/12 22:31:08;;;;;;;155.55;87.03;;;128.20;2252.80;;;;;;5069235;28;20070;-78
2021/11/12 22:33:33;;;;;;;172.02;96.68;;;128.10;2252.80;;;;;;5067294;28;20059;-77
2021/11/12 22:35:59;;;;;;;174.15;101.40;;;128.10;2252.80;;;;;;5069211;28;20048;-78
2021/11/12 22:38:25;;;;;;;183.13;99.35;;;128.10;2252.80;;;;;;5069871;28;20459;-80
2021/11/12 22:40:52;;;;;;;184.75;102.70;;;128.10;2252.80;;;;;;5086037;28;20036;-78
2021/11/12 22:43:19;;;;;;;196.32;108.50;;;128.10;2252.80;;;;;;5074228;28;20042;-77
2021/11/12 22:45:45;;;;;;;186.23;103.75;;;128.10;2252.80;;;;;;5085780;28;20809;-77
2021/11/12 22:48:11;;;;;;;191.80;105.78;;;128.10;2252.80;;;;;;5087114;28;20036;-77
2021/11/12 22:50:38;;;;;;;179.88;105.63;;;128.10;2252.80;;;;;;5088984;28;20379;-78
2021/11/12 22:53:05;;;;;;;193.70;108.22;;;128.00;2252.80;;;;;;5071684;28;20028;-78
2021/11/12 22:55:32;;;;;;;205.80;112.40;;;128.00;2252.80;;;;;;5069476;28;20031;-78
2021/11/12 22:57:59;;;;;;;199.98;117.15;;;128.00;2252.80;;;;;;5073660;28;20031;-77
2021/11/12 23:00:31;;;;;;;196.73;116.53;;;128.00;2252.80;;;;;;5071698;28;20105;-77
2021/11/12 23:02:58;;;;;;;214.70;119.82;;;128.00;2252.80;;;;;;5072292;28;20158;-77
2021/11/12 23:05:23;;;;;;;208.77;118.18;;;128.00;2252.80;;;;;;5073287;28;20020;-77
2021/11/12 23:07:50;;;;;;;216.25;121.78;;;128.00;2252.80;;;;;;5072243;28;20029;-78
2021/11/12 23:10:16;;;;;;;201.30;115.45;;;128.00;2252.80;;;;;;5071599;28;20020;-78
2021/11/12 23:12:43;;;;;;;207.00;110.20;;;128.10;2252.80;;;;;;5072094;28;20078;-78
2021/11/12 23:15:10;;;;;;;201.30;116.35;;;128.20;2252.80;;;;;;5071784;28;20025;-77
2021/11/12 23:17:36;;;;;;;190.90;108.88;;;128.20;2252.80;;;;;;5071376;28;20108;-77
2021/11/12 23:20:04;;;;;;;204.55;112.65;;;128.20;2252.80;;;;;;5073609;28;20066;-77
2021/11/12 23:22:30;;;;;;;210.88;121.00;;;128.30;2252.80;;;;;;5070996;28;20071;-76
2021/11/12 23:24:56;;;;;;;210.75;119.45;;;128.30;2252.80;;;;;;5072935;28;20048;-77
2021/11/12 23:27:21;;;;;;;214.25;117.22;;;128.30;2252.80;;;;;;5088240;28;20029;-78
2021/11/12 23:29:47;;;;;;;216.80;117.57;;;128.30;2252.80;;;;;;5071791;28;20353;-78
2021/11/12 23:32:13;;;;;;;206.15;112.80;;;128.30;2252.80;;;;;;5070969;28;20078;-78
2021/11/12 23:34:39;;;;;;;195.95;106.78;;;128.30;2252.80;;;;;;5071293;28;20092;-77
2021/11/12 23:37:06;;;;;;;192.65;102.43;;;128.30;2252.80;;;;;;5071368;28;20418;-78
2021/11/12 23:39:31;;;;;;;176.10;102.20;;;128.40;2252.80;;;;;;5072049;28;20029;-78
2021/11/12 23:41:57;;;;;;;177.55;96.72;;;128.40;2252.80;;;;;;5070988;28;20097;-77
2021/11/12 23:44:23;;;;;;;162.15;92.35;;;128.40;2252.80;;;;;;5072896;28;20021;-77
2021/11/12 23:46:49;;;;;;;149.52;81.20;;;128.40;2252.80;;;;;;5072684;28;20437;-77
2021/11/12 23:49:15;;;;;;;148.75;81.72;;;128.40;2252.80;;;;;;5072730;28;20070;-78
2021/11/12 23:51:42;;;;;;;146.05;75.80;;;128.40;2252.80;;;;;;5072806;28;20025;-77
2021/11/12 23:54:08;;;;;;;117.55;65.47;;;128.40;2252.80;;;;;;5076864;28;20037;-77
2021/11/12 23:56:34;;;;;;;113.10;65.43;;;128.40;2252.80;;;;;;5072708;28;20060;-77
2021/11/12 23:59:00;;;;;;;121.50;66.03;;;128.40;2252.80;;;;;;5070228;28;20063;-77
